sensor_id;sensor_type;location;lat;lon;timestamp;temperature;humidity
67862;DHT22;54665;51.462;6.698;2024-01-06T00:01:42;7.67;92.88
67862;DHT22;54665;51.462;6.698;2024-01-06T00:03:42;7.56;93.11
67862;DHT22;54665;51.462;6.698;2024-01-06T00:05:43;7.64;92.93
67862;DHT22;54665;51.462;6.698;2024-01-06T00:07:43;7.71;92.86
67862;DHT22;54665;51.462;6.698;2024-01-06T00:09:44;7.57;93.04
67862;DHT22;54665;51.462;6.698;2024-01-06T00:11:44;7.63;93.34
67862;DHT22;54665;51.462;6.698;2024-01-06T00:13:44;7.74;92.95
67862;DHT22;54665;51.462;6.698;2024-01-06T00:15:45;7.60;93.35
67862;DHT22;54665;51.462;6.698;2024-01-06T00:17:45;7.70;92.73
67862;DHT22;54665;51.462;6.698;2024-01-06T00:19:45;7.70;92.89
67862;DHT22;54665;51.462;6.698;2024-01-06T00:21:45;7.54;93.11
67862;DHT22;54665;51.462;6.698;2024-01-06T00:23:46;7.73;92.94
67862;DHT22;54665;51.462;6.698;2024-01-06T00:25:46;7.77;92.88
67862;DHT22;54665;51.462;6.698;2024-01-06T00:27:46;7.73;92.86
67862;DHT22;54665;51.462;6.698;2024-01-06T00:29:47;7.73;92.98
67862;DHT22;54665;51.462;6.698;2024-01-06T00:31:47;7.75;92.96
67862;DHT22;54665;51.462;6.698;2024-01-06T00:33:47;7.78;92.93
67862;DHT22;54665;51.462;6.698;2024-01-06T00:35:48;7.87;92.71
67862;DHT22;54665;51.462;6.698;2024-01-06T00:37:48;7.83;92.82
67862;DHT22;54665;51.462;6.698;2024-01-06T00:39:48;7.92;92.61
67862;DHT22;54665;51.462;6.698;2024-01-06T00:41:49;7.80;92.77
67862;DHT22;54665;51.462;6.698;2024-01-06T00:43:52;7.84;92.81
67862;DHT22;54665;51.462;6.698;2024-01-06T00:45:52;7.77;93.18
67862;DHT22;54665;51.462;6.698;2024-01-06T00:47:52;7.74;93.17
67862;DHT22;54665;51.462;6.698;2024-01-06T00:49:52;7.87;92.90
67862;DHT22;54665;51.462;6.698;2024-01-06T00:51:53;7.91;92.69
67862;DHT22;54665;51.462;6.698;2024-01-06T00:53:53;7.88;92.61
67862;DHT22;54665;51.462;6.698;2024-01-06T00:55:53;7.81;92.75
67862;DHT22;54665;51.462;6.698;2024-01-06T00:57:53;7.77;92.93
67862;DHT22;54665;51.462;6.698;2024-01-06T00:59:54;7.85;92.72
67862;DHT22;54665;51.462;6.698;2024-01-06T01:01:54;7.87;92.61
67862;DHT22;54665;51.462;6.698;2024-01-06T01:03:54;7.92;92.58
67862;DHT22;54665;51.462;6.698;2024-01-06T01:05:55;7.81;92.69
67862;DHT22;54665;51.462;6.698;2024-01-06T01:07:55;7.85;92.63
67862;DHT22;54665;51.462;6.698;2024-01-06T01:09:55;7.83;92.76
67862;DHT22;54665;51.462;6.698;2024-01-06T01:11:55;7.84;92.62
67862;DHT22;54665;51.462;6.698;2024-01-06T01:13:56;7.78;92.97
67862;DHT22;54665;51.462;6.698;2024-01-06T01:15:56;7.90;92.59
67862;DHT22;54665;51.462;6.698;2024-01-06T01:17:57;7.80;93.10
67862;DHT22;54665;51.462;6.698;2024-01-06T01:19:57;7.87;92.68
67862;DHT22;54665;51.462;6.698;2024-01-06T01:21:57;7.73;92.79
67862;DHT22;54665;51.462;6.698;2024-01-06T01:23:57;7.77;93.35
67862;DHT22;54665;51.462;6.698;2024-01-06T01:25:58;7.91;92.58
67862;DHT22;54665;51.462;6.698;2024-01-06T01:27:58;7.91;92.55
67862;DHT22;54665;51.462;6.698;2024-01-06T01:29:58;7.94;92.42
67862;DHT22;54665;51.462;6.698;2024-01-06T01:31:59;7.95;92.44
67862;DHT22;54665;51.462;6.698;2024-01-06T01:33:59;7.85;92.77
67862;DHT22;54665;51.462;6.698;2024-01-06T01:35:59;7.92;92.71
67862;DHT22;54665;51.462;6.698;2024-01-06T01:37:59;7.75;92.91
67862;DHT22;54665;51.462;6.698;2024-01-06T01:40:00;7.69;93.23
67862;DHT22;54665;51.462;6.698;2024-01-06T01:42:00;7.80;92.91
67862;DHT22;54665;51.462;6.698;2024-01-06T01:44:01;7.85;92.64
67862;DHT22;54665;51.462;6.698;2024-01-06T01:46:01;7.75;92.61
67862;DHT22;54665;51.462;6.698;2024-01-06T01:48:02;7.78;93.13
67862;DHT22;54665;51.462;6.698;2024-01-06T01:50:03;7.61;93.04
67862;DHT22;54665;51.462;6.698;2024-01-06T01:52:03;7.91;92.52
67862;DHT22;54665;51.462;6.698;2024-01-06T01:54:05;7.97;92.27
67862;DHT22;54665;51.462;6.698;2024-01-06T01:56:06;7.95;92.14
67862;DHT22;54665;51.462;6.698;2024-01-06T01:58:06;7.99;92.14
67862;DHT22;54665;51.462;6.698;2024-01-06T02:00:07;8.01;92.20
67862;DHT22;54665;51.462;6.698;2024-01-06T02:02:12;7.75;93.19
67862;DHT22;54665;51.462;6.698;2024-01-06T02:04:12;7.84;92.67
67862;DHT22;54665;51.462;6.698;2024-01-06T02:06:12;7.51;93.40
67862;DHT22;54665;51.462;6.698;2024-01-06T02:08:13;7.46;93.91
67862;DHT22;54665;51.462;6.698;2024-01-06T02:10:13;7.24;94.21
67862;DHT22;54665;51.462;6.698;2024-01-06T02:12:13;7.60;93.81
67862;DHT22;54665;51.462;6.698;2024-01-06T02:14:14;7.56;93.20
67862;DHT22;54665;51.462;6.698;2024-01-06T02:16:14;7.44;93.84
67862;DHT22;54665;51.462;6.698;2024-01-06T02:18:14;7.30;94.39
67862;DHT22;54665;51.462;6.698;2024-01-06T02:20:16;7.34;94.19
67862;DHT22;54665;51.462;6.698;2024-01-06T02:22:16;7.34;93.71
67862;DHT22;54665;51.462;6.698;2024-01-06T02:24:16;7.18;94.12
67862;DHT22;54665;51.462;6.698;2024-01-06T02:26:17;7.37;93.89
67862;DHT22;54665;51.462;6.698;2024-01-06T02:28:18;7.20;93.92
67862;DHT22;54665;51.462;6.698;2024-01-06T02:30:18;7.30;93.76
67862;DHT22;54665;51.462;6.698;2024-01-06T02:32:18;7.13;93.94
67862;DHT22;54665;51.462;6.698;2024-01-06T02:34:19;7.44;93.61
67862;DHT22;54665;51.462;6.698;2024-01-06T02:36:19;7.19;94.21
67862;DHT22;54665;51.462;6.698;2024-01-06T02:38:19;7.09;93.85
67862;DHT22;54665;51.462;6.698;2024-01-06T02:40:20;7.06;94.09
67862;DHT22;54665;51.462;6.698;2024-01-06T02:42:20;6.75;92.89
67862;DHT22;54665;51.462;6.698;2024-01-06T02:44:20;6.92;92.48
67862;DHT22;54665;51.462;6.698;2024-01-06T02:46:24;6.98;91.94
67862;DHT22;54665;51.462;6.698;2024-01-06T02:48:24;7.01;92.07
67862;DHT22;54665;51.462;6.698;2024-01-06T02:50:24;6.68;93.00
67862;DHT22;54665;51.462;6.698;2024-01-06T02:52:25;6.68;92.03
67862;DHT22;54665;51.462;6.698;2024-01-06T02:54:25;6.75;92.31
67862;DHT22;54665;51.462;6.698;2024-01-06T02:56:25;6.55;92.26
67862;DHT22;54665;51.462;6.698;2024-01-06T02:58:26;6.64;91.90
67862;DHT22;54665;51.462;6.698;2024-01-06T03:00:26;6.61;92.28
67862;DHT22;54665;51.462;6.698;2024-01-06T03:02:26;6.47;91.65
67862;DHT22;54665;51.462;6.698;2024-01-06T03:04:26;6.34;90.80
67862;DHT22;54665;51.462;6.698;2024-01-06T03:06:28;6.36;91.08
67862;DHT22;54665;51.462;6.698;2024-01-06T03:08:28;6.29;90.48
67862;DHT22;54665;51.462;6.698;2024-01-06T03:10:28;6.20;90.85
67862;DHT22;54665;51.462;6.698;2024-01-06T03:12:28;6.24;90.72
67862;DHT22;54665;51.462;6.698;2024-01-06T03:14:29;6.27;90.68
67862;DHT22;54665;51.462;6.698;2024-01-06T03:16:29;6.14;90.71
67862;DHT22;54665;51.462;6.698;2024-01-06T03:18:29;6.09;90.38
67862;DHT22;54665;51.462;6.698;2024-01-06T03:20:29;6.20;90.63
67862;DHT22;54665;51.462;6.698;2024-01-06T03:22:30;6.10;90.34
67862;DHT22;54665;51.462;6.698;2024-01-06T03:24:30;6.14;90.53
67862;DHT22;54665;51.462;6.698;2024-01-06T03:26:30;6.14;91.04
67862;DHT22;54665;51.462;6.698;2024-01-06T03:28:30;6.14;90.67
67862;DHT22;54665;51.462;6.698;2024-01-06T03:30:31;6.03;91.12
67862;DHT22;54665;51.462;6.698;2024-01-06T03:32:31;6.38;90.79
67862;DHT22;54665;51.462;6.698;2024-01-06T03:34:31;6.26;91.12
67862;DHT22;54665;51.462;6.698;2024-01-06T03:36:32;6.29;90.92
67862;DHT22;54665;51.462;6.698;2024-01-06T03:38:32;6.26;91.24
67862;DHT22;54665;51.462;6.698;2024-01-06T03:40:33;6.26;90.80
67862;DHT22;54665;51.462;6.698;2024-01-06T03:42:33;6.16;90.75
67862;DHT22;54665;51.462;6.698;2024-01-06T03:44:33;6.34;91.11
67862;DHT22;54665;51.462;6.698;2024-01-06T03:46:34;6.33;90.97
67862;DHT22;54665;51.462;6.698;2024-01-06T03:48:35;6.13;91.17
67862;DHT22;54665;51.462;6.698;2024-01-06T03:50:35;6.16;91.07
67862;DHT22;54665;51.462;6.698;2024-01-06T03:52:35;5.93;90.39
67862;DHT22;54665;51.462;6.698;2024-01-06T03:54:36;5.86;90.60
67862;DHT22;54665;51.462;6.698;2024-01-06T03:56:36;5.82;90.34
67862;DHT22;54665;51.462;6.698;2024-01-06T03:58:36;6.02;90.18
67862;DHT22;54665;51.462;6.698;2024-01-06T04:00:37;6.17;89.53
67862;DHT22;54665;51.462;6.698;2024-01-06T04:02:37;6.02;89.70
67862;DHT22;54665;51.462;6.698;2024-01-06T04:04:37;6.07;88.93
67862;DHT22;54665;51.462;6.698;2024-01-06T04:06:37;6.03;90.05
67862;DHT22;54665;51.462;6.698;2024-01-06T04:08:39;6.14;89.10
67862;DHT22;54665;51.462;6.698;2024-01-06T04:10:40;6.02;89.71
67862;DHT22;54665;51.462;6.698;2024-01-06T04:12:40;6.03;89.47
67862;DHT22;54665;51.462;6.698;2024-01-06T04:14:40;5.99;89.43
67862;DHT22;54665;51.462;6.698;2024-01-06T04:16:40;5.95;89.82
67862;DHT22;54665;51.462;6.698;2024-01-06T04:18:41;6.10;89.58
67862;DHT22;54665;51.462;6.698;2024-01-06T04:20:41;6.23;89.23
67862;DHT22;54665;51.462;6.698;2024-01-06T04:22:41;6.24;89.31
67862;DHT22;54665;51.462;6.698;2024-01-06T04:24:42;6.47;88.63
67862;DHT22;54665;51.462;6.698;2024-01-06T04:26:42;6.24;89.34
67862;DHT22;54665;51.462;6.698;2024-01-06T04:28:42;6.20;89.28
67862;DHT22;54665;51.462;6.698;2024-01-06T04:30:42;6.42;88.74
67862;DHT22;54665;51.462;6.698;2024-01-06T04:32:43;6.36;88.97
67862;DHT22;54665;51.462;6.698;2024-01-06T04:34:43;6.16;89.48
67862;DHT22;54665;51.462;6.698;2024-01-06T04:36:44;6.14;89.29
67862;DHT22;54665;51.462;6.698;2024-01-06T04:38:44;5.99;89.92
67862;DHT22;54665;51.462;6.698;2024-01-06T04:40:44;6.16;89.63
67862;DHT22;54665;51.462;6.698;2024-01-06T04:42:45;6.11;89.50
67862;DHT22;54665;51.462;6.698;2024-01-06T04:44:45;5.78;90.33
67862;DHT22;54665;51.462;6.698;2024-01-06T04:46:45;5.68;90.61
67862;DHT22;54665;51.462;6.698;2024-01-06T04:48:46;5.56;91.43
67862;DHT22;54665;51.462;6.698;2024-01-06T04:50:46;5.63;90.95
67862;DHT22;54665;51.462;6.698;2024-01-06T04:52:47;5.79;91.13
67862;DHT22;54665;51.462;6.698;2024-01-06T04:54:48;5.60;90.95
67862;DHT22;54665;51.462;6.698;2024-01-06T04:56:48;5.59;91.27
67862;DHT22;54665;51.462;6.698;2024-01-06T04:58:48;5.63;91.38
67862;DHT22;54665;51.462;6.698;2024-01-06T05:00:49;5.66;90.85
67862;DHT22;54665;51.462;6.698;2024-01-06T05:02:49;5.88;90.98
67862;DHT22;54665;51.462;6.698;2024-01-06T05:04:49;5.58;91.13
67862;DHT22;54665;51.462;6.698;2024-01-06T05:06:51;5.80;90.60
67862;DHT22;54665;51.462;6.698;2024-01-06T05:08:51;5.70;91.01
67862;DHT22;54665;51.462;6.698;2024-01-06T05:10:52;5.95;90.76
67862;DHT22;54665;51.462;6.698;2024-01-06T05:12:53;5.69;91.33
67862;DHT22;54665;51.462;6.698;2024-01-06T05:14:53;5.58;91.47
67862;DHT22;54665;51.462;6.698;2024-01-06T05:16:53;5.75;91.89
67862;DHT22;54665;51.462;6.698;2024-01-06T05:18:54;5.52;92.28
67862;DHT22;54665;51.462;6.698;2024-01-06T05:20:54;5.79;91.35
67862;DHT22;54665;51.462;6.698;2024-01-06T05:22:55;5.52;92.14
67862;DHT22;54665;51.462;6.698;2024-01-06T05:24:55;5.52;92.43
67862;DHT22;54665;51.462;6.698;2024-01-06T05:26:56;5.55;92.19
67862;DHT22;54665;51.462;6.698;2024-01-06T05:28:56;5.65;92.35
67862;DHT22;54665;51.462;6.698;2024-01-06T05:30:56;5.72;92.26
67862;DHT22;54665;51.462;6.698;2024-01-06T05:32:57;5.52;92.64
67862;DHT22;54665;51.462;6.698;2024-01-06T05:34:57;5.62;92.79
67862;DHT22;54665;51.462;6.698;2024-01-06T05:36:57;5.83;91.93
67862;DHT22;54665;51.462;6.698;2024-01-06T05:38:58;5.66;92.84
67862;DHT22;54665;51.462;6.698;2024-01-06T05:40:58;5.52;92.84
67862;DHT22;54665;51.462;6.698;2024-01-06T05:42:58;5.52;93.56
67862;DHT22;54665;51.462;6.698;2024-01-06T05:44:59;5.47;93.67
67862;DHT22;54665;51.462;6.698;2024-01-06T05:46:59;5.58;93.14
67862;DHT22;54665;51.462;6.698;2024-01-06T05:48:59;5.51;93.45
67862;DHT22;54665;51.462;6.698;2024-01-06T05:50:59;5.34;93.72
67862;DHT22;54665;51.462;6.698;2024-01-06T05:53:00;5.48;93.90
67862;DHT22;54665;51.462;6.698;2024-01-06T05:55:00;5.48;93.85
67862;DHT22;54665;51.462;6.698;2024-01-06T05:57:00;5.56;94.03
67862;DHT22;54665;51.462;6.698;2024-01-06T05:59:00;5.25;94.28
67862;DHT22;54665;51.462;6.698;2024-01-06T06:01:01;5.41;94.40
67862;DHT22;54665;51.462;6.698;2024-01-06T06:03:01;5.30;94.42
67862;DHT22;54665;51.462;6.698;2024-01-06T06:05:01;5.25;94.69
67862;DHT22;54665;51.462;6.698;2024-01-06T06:07:02;5.24;94.51
67862;DHT22;54665;51.462;6.698;2024-01-06T06:09:02;5.42;94.43
67862;DHT22;54665;51.462;6.698;2024-01-06T06:11:03;5.44;94.15
67862;DHT22;54665;51.462;6.698;2024-01-06T06:13:03;5.44;94.09
67862;DHT22;54665;51.462;6.698;2024-01-06T06:15:04;5.38;94.40
67862;DHT22;54665;51.462;6.698;2024-01-06T06:17:05;5.24;95.00
67862;DHT22;54665;51.462;6.698;2024-01-06T06:19:05;5.32;94.66
67862;DHT22;54665;51.462;6.698;2024-01-06T06:21:06;5.21;93.66
67862;DHT22;54665;51.462;6.698;2024-01-06T06:23:07;5.18;93.62
67862;DHT22;54665;51.462;6.698;2024-01-06T06:25:07;5.10;93.60
67862;DHT22;54665;51.462;6.698;2024-01-06T06:27:07;5.24;93.25
67862;DHT22;54665;51.462;6.698;2024-01-06T06:29:08;5.20;93.19
67862;DHT22;54665;51.462;6.698;2024-01-06T06:31:08;5.08;93.24
67862;DHT22;54665;51.462;6.698;2024-01-06T06:33:08;5.15;93.12
67862;DHT22;54665;51.462;6.698;2024-01-06T06:35:09;5.07;92.93
67862;DHT22;54665;51.462;6.698;2024-01-06T06:37:09;5.15;92.79
67862;DHT22;54665;51.462;6.698;2024-01-06T06:39:09;5.07;93.21
67862;DHT22;54665;51.462;6.698;2024-01-06T06:41:09;5.13;92.81
67862;DHT22;54665;51.462;6.698;2024-01-06T06:43:10;4.93;92.69
67862;DHT22;54665;51.462;6.698;2024-01-06T06:45:10;5.13;93.03
67862;DHT22;54665;51.462;6.698;2024-01-06T06:47:10;5.18;92.43
67862;DHT22;54665;51.462;6.698;2024-01-06T06:49:11;5.04;92.64
67862;DHT22;54665;51.462;6.698;2024-01-06T06:51:11;4.97;93.34
67862;DHT22;54665;51.462;6.698;2024-01-06T06:53:11;5.11;93.08
67862;DHT22;54665;51.462;6.698;2024-01-06T06:55:12;5.13;92.78
67862;DHT22;54665;51.462;6.698;2024-01-06T06:57:12;5.00;92.54
67862;DHT22;54665;51.462;6.698;2024-01-06T06:59:12;4.96;92.70
67862;DHT22;54665;51.462;6.698;2024-01-06T07:01:16;5.14;92.73
67862;DHT22;54665;51.462;6.698;2024-01-06T07:03:16;5.07;93.31
67862;DHT22;54665;51.462;6.698;2024-01-06T07:05:16;5.07;93.47
67862;DHT22;54665;51.462;6.698;2024-01-06T07:07:17;5.06;93.16
67862;DHT22;54665;51.462;6.698;2024-01-06T07:09:17;4.88;94.66
67862;DHT22;54665;51.462;6.698;2024-01-06T07:11:17;4.76;95.11
67862;DHT22;54665;51.462;6.698;2024-01-06T07:13:18;4.73;95.19
67862;DHT22;54665;51.462;6.698;2024-01-06T07:15:18;4.57;95.57
67862;DHT22;54665;51.462;6.698;2024-01-06T07:17:18;4.53;95.56
67862;DHT22;54665;51.462;6.698;2024-01-06T07:19:18;4.72;95.30
67862;DHT22;54665;51.462;6.698;2024-01-06T07:21:19;4.56;95.53
67862;DHT22;54665;51.462;6.698;2024-01-06T07:23:19;4.73;95.29
67862;DHT22;54665;51.462;6.698;2024-01-06T07:25:19;4.70;95.35
67862;DHT22;54665;51.462;6.698;2024-01-06T07:27:20;4.79;95.21
67862;DHT22;54665;51.462;6.698;2024-01-06T07:29:20;4.55;95.17
67862;DHT22;54665;51.462;6.698;2024-01-06T07:31:20;4.79;95.07
67862;DHT22;54665;51.462;6.698;2024-01-06T07:33:21;4.74;95.33
67862;DHT22;54665;51.462;6.698;2024-01-06T07:35:21;4.67;94.98
67862;DHT22;54665;51.462;6.698;2024-01-06T07:37:21;4.65;95.09
67862;DHT22;54665;51.462;6.698;2024-01-06T07:39:21;4.80;94.77
67862;DHT22;54665;51.462;6.698;2024-01-06T07:41:22;4.77;94.21
67862;DHT22;54665;51.462;6.698;2024-01-06T07:43:22;4.49;95.15
67862;DHT22;54665;51.462;6.698;2024-01-06T07:45:22;4.59;95.19
67862;DHT22;54665;51.462;6.698;2024-01-06T07:47:23;4.83;94.87
67862;DHT22;54665;51.462;6.698;2024-01-06T07:49:23;4.73;94.87
67862;DHT22;54665;51.462;6.698;2024-01-06T07:51:23;4.65;94.91
67862;DHT22;54665;51.462;6.698;2024-01-06T07:53:23;4.50;95.06
67862;DHT22;54665;51.462;6.698;2024-01-06T07:55:24;4.83;94.15
67862;DHT22;54665;51.462;6.698;2024-01-06T07:57:24;4.69;94.18
67862;DHT22;54665;51.462;6.698;2024-01-06T07:59:25;4.59;94.59
67862;DHT22;54665;51.462;6.698;2024-01-06T08:01:25;4.72;94.21
67862;DHT22;54665;51.462;6.698;2024-01-06T08:03:25;4.70;94.34
67862;DHT22;54665;51.462;6.698;2024-01-06T08:05:25;4.69;94.25
67862;DHT22;54665;51.462;6.698;2024-01-06T08:07:26;4.55;94.14
67862;DHT22;54665;51.462;6.698;2024-01-06T08:09:26;4.63;94.56
67862;DHT22;54665;51.462;6.698;2024-01-06T08:11:26;4.69;93.99
67862;DHT22;54665;51.462;6.698;2024-01-06T08:13:26;4.48;94.50
67862;DHT22;54665;51.462;6.698;2024-01-06T08:15:27;4.50;94.93
67862;DHT22;54665;51.462;6.698;2024-01-06T08:17:27;4.57;94.88
67862;DHT22;54665;51.462;6.698;2024-01-06T08:19:27;4.45;95.55
67862;DHT22;54665;51.462;6.698;2024-01-06T08:21:28;4.38;95.51
67862;DHT22;54665;51.462;6.698;2024-01-06T08:23:28;4.42;95.30
67862;DHT22;54665;51.462;6.698;2024-01-06T08:25:28;4.56;95.40
67862;DHT22;54665;51.462;6.698;2024-01-06T08:27:29;4.45;95.48
67862;DHT22;54665;51.462;6.698;2024-01-06T08:29:29;4.33;95.95
67862;DHT22;54665;51.462;6.698;2024-01-06T08:31:29;4.56;95.68
67862;DHT22;54665;51.462;6.698;2024-01-06T08:33:29;4.69;95.06
67862;DHT22;54665;51.462;6.698;2024-01-06T08:35:30;4.50;95.76
67862;DHT22;54665;51.462;6.698;2024-01-06T08:37:30;4.26;95.65
67862;DHT22;54665;51.462;6.698;2024-01-06T08:39:30;4.39;95.14
67862;DHT22;54665;51.462;6.698;2024-01-06T08:41:31;4.31;95.71
67862;DHT22;54665;51.462;6.698;2024-01-06T08:43:31;4.31;95.57
67862;DHT22;54665;51.462;6.698;2024-01-06T08:45:31;4.63;95.39
67862;DHT22;54665;51.462;6.698;2024-01-06T08:47:31;4.26;94.95
67862;DHT22;54665;51.462;6.698;2024-01-06T08:49:32;4.48;95.08
67862;DHT22;54665;51.462;6.698;2024-01-06T08:51:32;4.73;94.28
67862;DHT22;54665;51.462;6.698;2024-01-06T08:53:32;4.31;95.46
67862;DHT22;54665;51.462;6.698;2024-01-06T08:55:33;4.26;95.26
67862;DHT22;54665;51.462;6.698;2024-01-06T08:57:33;4.21;95.76
67862;DHT22;54665;51.462;6.698;2024-01-06T08:59:33;4.22;95.94
67862;DHT22;54665;51.462;6.698;2024-01-06T09:01:34;4.12;95.57
67862;DHT22;54665;51.462;6.698;2024-01-06T09:03:34;4.16;95.52
67862;DHT22;54665;51.462;6.698;2024-01-06T09:05:34;3.94;95.77
67862;DHT22;54665;51.462;6.698;2024-01-06T09:07:34;4.22;95.39
67862;DHT22;54665;51.462;6.698;2024-01-06T09:09:35;4.06;95.42
67862;DHT22;54665;51.462;6.698;2024-01-06T09:11:35;4.11;95.59
67862;DHT22;54665;51.462;6.698;2024-01-06T09:13:35;4.32;94.94
67862;DHT22;54665;51.462;6.698;2024-01-06T09:15:36;4.24;94.74
67862;DHT22;54665;51.462;6.698;2024-01-06T09:17:36;4.18;94.77
67862;DHT22;54665;51.462;6.698;2024-01-06T09:19:36;4.32;94.37
67862;DHT22;54665;51.462;6.698;2024-01-06T09:21:37;4.31;94.52
67862;DHT22;54665;51.462;6.698;2024-01-06T09:23:39;4.31;95.18
67862;DHT22;54665;51.462;6.698;2024-01-06T09:25:40;4.33;94.86
67862;DHT22;54665;51.462;6.698;2024-01-06T09:27:43;4.22;95.46
67862;DHT22;54665;51.462;6.698;2024-01-06T09:29:44;4.16;95.50
67862;DHT22;54665;51.462;6.698;2024-01-06T09:31:44;4.15;95.07
67862;DHT22;54665;51.462;6.698;2024-01-06T09:33:44;4.06;95.49
67862;DHT22;54665;51.462;6.698;2024-01-06T09:35:44;4.05;95.35
67862;DHT22;54665;51.462;6.698;2024-01-06T09:37:45;4.08;95.08
67862;DHT22;54665;51.462;6.698;2024-01-06T09:39:45;4.02;94.72
67862;DHT22;54665;51.462;6.698;2024-01-06T09:41:45;4.02;94.63
67862;DHT22;54665;51.462;6.698;2024-01-06T09:43:45;4.12;94.66
67862;DHT22;54665;51.462;6.698;2024-01-06T09:45:52;3.99;95.02
67862;DHT22;54665;51.462;6.698;2024-01-06T09:47:55;3.94;95.05
67862;DHT22;54665;51.462;6.698;2024-01-06T09:49:57;3.87;95.58
67862;DHT22;54665;51.462;6.698;2024-01-06T09:52:00;3.94;95.59
67862;DHT22;54665;51.462;6.698;2024-01-06T09:54:04;3.99;95.53
67862;DHT22;54665;51.462;6.698;2024-01-06T09:56:06;4.04;95.33
67862;DHT22;54665;51.462;6.698;2024-01-06T09:58:08;3.84;95.79
67862;DHT22;54665;51.462;6.698;2024-01-06T10:00:08;3.99;95.07
67862;DHT22;54665;51.462;6.698;2024-01-06T10:02:16;3.83;95.92
67862;DHT22;54665;51.462;6.698;2024-01-06T10:04:17;3.83;95.69
67862;DHT22;54665;51.462;6.698;2024-01-06T10:06:17;3.88;95.83
67862;DHT22;54665;51.462;6.698;2024-01-06T10:08:18;3.80;95.21
67862;DHT22;54665;51.462;6.698;2024-01-06T10:10:18;4.05;95.35
67862;DHT22;54665;51.462;6.698;2024-01-06T10:12:23;3.91;95.66
67862;DHT22;54665;51.462;6.698;2024-01-06T10:14:24;3.91;95.83
67862;DHT22;54665;51.462;6.698;2024-01-06T10:16:24;3.98;95.40
67862;DHT22;54665;51.462;6.698;2024-01-06T10:18:25;3.90;95.81
67862;DHT22;54665;51.462;6.698;2024-01-06T10:20:26;3.91;95.96
67862;DHT22;54665;51.462;6.698;2024-01-06T10:22:27;3.93;95.78
67862;DHT22;54665;51.462;6.698;2024-01-06T10:24:28;3.90;96.10
67862;DHT22;54665;51.462;6.698;2024-01-06T10:26:28;3.98;95.59
67862;DHT22;54665;51.462;6.698;2024-01-06T10:28:29;3.98;95.77
67862;DHT22;54665;51.462;6.698;2024-01-06T10:30:29;3.74;96.20
67862;DHT22;54665;51.462;6.698;2024-01-06T10:32:31;3.74;95.90
67862;DHT22;54665;51.462;6.698;2024-01-06T10:34:32;3.85;95.65
67862;DHT22;54665;51.462;6.698;2024-01-06T10:36:32;3.71;95.94
67862;DHT22;54665;51.462;6.698;2024-01-06T10:38:33;3.87;95.41
67862;DHT22;54665;51.462;6.698;2024-01-06T10:40:33;3.75;95.52
67862;DHT22;54665;51.462;6.698;2024-01-06T10:42:34;4.02;95.47
67862;DHT22;54665;51.462;6.698;2024-01-06T10:44:36;3.81;95.51
67862;DHT22;54665;51.462;6.698;2024-01-06T10:46:38;3.99;95.46
67862;DHT22;54665;51.462;6.698;2024-01-06T10:48:39;3.97;95.25
67862;DHT22;54665;51.462;6.698;2024-01-06T10:50:39;3.75;95.39
67862;DHT22;54665;51.462;6.698;2024-01-06T10:52:40;3.81;95.17
67862;DHT22;54665;51.462;6.698;2024-01-06T10:54:41;3.59;94.98
67862;DHT22;54665;51.462;6.698;2024-01-06T10:56:42;3.67;94.87
67862;DHT22;54665;51.462;6.698;2024-01-06T10:58:46;3.61;95.27
67862;DHT22;54665;51.462;6.698;2024-01-06T11:00:47;3.61;95.17
67862;DHT22;54665;51.462;6.698;2024-01-06T11:02:47;3.50;94.62
67862;DHT22;54665;51.462;6.698;2024-01-06T11:04:48;3.61;94.62
67862;DHT22;54665;51.462;6.698;2024-01-06T11:06:49;3.57;94.44
67862;DHT22;54665;51.462;6.698;2024-01-06T11:11:09;3.77;94.60
67862;DHT22;54665;51.462;6.698;2024-01-06T11:13:15;3.69;95.06
67862;DHT22;54665;51.462;6.698;2024-01-06T11:15:41;3.57;94.94
67862;DHT22;54665;51.462;6.698;2024-01-06T11:19:50;3.75;95.34
67862;DHT22;54665;51.462;6.698;2024-01-06T11:21:51;3.56;95.23
67862;DHT22;54665;51.462;6.698;2024-01-06T11:26:14;3.40;95.85
67862;DHT22;54665;51.462;6.698;2024-01-06T11:28:16;3.42;95.80
67862;DHT22;54665;51.462;6.698;2024-01-06T11:30:23;3.56;95.81
67862;DHT22;54665;51.462;6.698;2024-01-06T11:32:37;3.32;95.87
67862;DHT22;54665;51.462;6.698;2024-01-06T11:34:39;3.40;95.57
67862;DHT22;54665;51.462;6.698;2024-01-06T11:36:40;3.69;95.77
67862;DHT22;54665;51.462;6.698;2024-01-06T11:38:40;3.57;95.73
67862;DHT22;54665;51.462;6.698;2024-01-06T11:40:41;3.36;95.39
67862;DHT22;54665;51.462;6.698;2024-01-06T11:42:42;3.47;95.16
67862;DHT22;54665;51.462;6.698;2024-01-06T11:44:44;3.36;95.52
67862;DHT22;54665;51.462;6.698;2024-01-06T11:46:45;3.37;95.74
67862;DHT22;54665;51.462;6.698;2024-01-06T11:48:45;3.39;95.31
67862;DHT22;54665;51.462;6.698;2024-01-06T11:50:48;3.36;95.51
67862;DHT22;54665;51.462;6.698;2024-01-06T11:52:49;3.36;96.01
67862;DHT22;54665;51.462;6.698;2024-01-06T11:54:50;3.53;95.61
67862;DHT22;54665;51.462;6.698;2024-01-06T11:56:50;3.44;95.60
67862;DHT22;54665;51.462;6.698;2024-01-06T11:58:50;3.60;95.26
67862;DHT22;54665;51.462;6.698;2024-01-06T12:00:57;3.42;95.72
67862;DHT22;54665;51.462;6.698;2024-01-06T12:02:58;3.43;96.04
67862;DHT22;54665;51.462;6.698;2024-01-06T12:04:59;3.42;95.97
67862;DHT22;54665;51.462;6.698;2024-01-06T12:07:06;3.37;95.84
67862;DHT22;54665;51.462;6.698;2024-01-06T12:09:08;3.47;95.42
67862;DHT22;54665;51.462;6.698;2024-01-06T12:11:09;3.47;95.16
67862;DHT22;54665;51.462;6.698;2024-01-06T12:13:11;3.29;95.55
67862;DHT22;54665;51.462;6.698;2024-01-06T12:15:11;3.54;95.11
67862;DHT22;54665;51.462;6.698;2024-01-06T12:17:12;3.49;95.45
67862;DHT22;54665;51.462;6.698;2024-01-06T12:19:12;3.39;95.41
67862;DHT22;54665;51.462;6.698;2024-01-06T12:21:13;3.30;94.87
67862;DHT22;54665;51.462;6.698;2024-01-06T12:23:23;3.27;94.75
67862;DHT22;54665;51.462;6.698;2024-01-06T12:25:25;3.44;94.88
67862;DHT22;54665;51.462;6.698;2024-01-06T12:27:25;3.67;94.32
67862;DHT22;54665;51.462;6.698;2024-01-06T12:29:27;3.52;93.54
67862;DHT22;54665;51.462;6.698;2024-01-06T12:31:27;3.43;94.22
67862;DHT22;54665;51.462;6.698;2024-01-06T12:33:27;3.49;94.13
67862;DHT22;54665;51.462;6.698;2024-01-06T12:35:28;3.52;93.65
67862;DHT22;54665;51.462;6.698;2024-01-06T12:37:28;3.63;94.14
67862;DHT22;54665;51.462;6.698;2024-01-06T12:39:29;3.56;94.08
67862;DHT22;54665;51.462;6.698;2024-01-06T12:41:30;3.57;94.44
67862;DHT22;54665;51.462;6.698;2024-01-06T12:43:30;3.39;94.83
67862;DHT22;54665;51.462;6.698;2024-01-06T12:45:30;3.27;94.95
67862;DHT22;54665;51.462;6.698;2024-01-06T12:47:31;3.27;94.49
67862;DHT22;54665;51.462;6.698;2024-01-06T12:49:32;3.36;94.65
67862;DHT22;54665;51.462;6.698;2024-01-06T12:51:32;3.13;94.53
67862;DHT22;54665;51.462;6.698;2024-01-06T12:53:32;3.30;93.84
67862;DHT22;54665;51.462;6.698;2024-01-06T12:55:33;3.32;93.81
67862;DHT22;54665;51.462;6.698;2024-01-06T12:57:33;3.09;93.81
67862;DHT22;54665;51.462;6.698;2024-01-06T12:59:33;3.23;93.69
67862;DHT22;54665;51.462;6.698;2024-01-06T13:01:34;3.34;93.92